sensor_id;sensor_type;location;lat;lon;timestamp;P1;durP1;ratioP1;P2;durP2;ratioP2
6089;SDS011;3073;42.660;23.316;2023-07-20T00:01:19;14.23;;;3.47;;
6089;SDS011;3073;42.660;23.316;2023-07-20T00:03:48;12.20;;;3.47;;
6089;SDS011;3073;42.660;23.316;2023-07-20T00:06:20;8.50;;;2.97;;
6089;SDS011;3073;42.660;23.316;2023-07-20T00:08:47;9.03;;;2.83;;
6089;SDS011;3073;42.660;23.316;2023-07-20T00:11:14;5.20;;;3.10;;
6089;SDS011;3073;42.660;23.316;2023-07-20T00:13:41;6.73;;;2.70;;
6089;SDS011;3073;42.660;23.316;2023-07-20T00:16:08;8.90;;;2.53;;
6089;SDS011;3073;42.660;23.316;2023-07-20T00:18:35;8.77;;;2.57;;
6089;SDS011;3073;42.660;23.316;2023-07-20T00:21:03;7.73;;;2.97;;
6089;SDS011;3073;42.660;23.316;2023-07-20T00:23:30;12.37;;;2.80;;
6089;SDS011;3073;42.660;23.316;2023-07-20T00:25:57;7.90;;;2.60;;
6089;SDS011;3073;42.660;23.316;2023-07-20T00:28:24;13.33;;;2.50;;
6089;SDS011;3073;42.660;23.316;2023-07-20T00:30:51;6.57;;;2.50;;
6089;SDS011;3073;42.660;23.316;2023-07-20T00:33:18;11.33;;;3.47;;
6089;SDS011;3073;42.660;23.316;2023-07-20T00:35:44;9.93;;;2.93;;
6089;SDS011;3073;42.660;23.316;2023-07-20T00:38:17;8.70;;;2.40;;
6089;SDS011;3073;42.660;23.316;2023-07-20T00:40:44;8.80;;;2.60;;
6089;SDS011;3073;42.660;23.316;2023-07-20T00:43:11;9.80;;;3.00;;
6089;SDS011;3073;42.660;23.316;2023-07-20T00:45:38;12.33;;;2.77;;
6089;SDS011;3073;42.660;23.316;2023-07-20T00:48:05;5.40;;;2.83;;
6089;SDS011;3073;42.660;23.316;2023-07-20T00:50:33;10.33;;;2.70;;
6089;SDS011;3073;42.660;23.316;2023-07-20T00:53:00;7.63;;;2.73;;
6089;SDS011;3073;42.660;23.316;2023-07-20T00:55:31;10.87;;;3.87;;
6089;SDS011;3073;42.660;23.316;2023-07-20T00:57:58;7.90;;;3.10;;
6089;SDS011;3073;42.660;23.316;2023-07-20T01:00:25;13.00;;;2.97;;
6089;SDS011;3073;42.660;23.316;2023-07-20T01:02:52;10.20;;;2.90;;
6089;SDS011;3073;42.660;23.316;2023-07-20T01:05:19;12.43;;;3.00;;
6089;SDS011;3073;42.660;23.316;2023-07-20T01:07:50;14.70;;;2.77;;
6089;SDS011;3073;42.660;23.316;2023-07-20T01:10:25;6.87;;;2.60;;
6089;SDS011;3073;42.660;23.316;2023-07-20T01:12:57;8.67;;;3.30;;
6089;SDS011;3073;42.660;23.316;2023-07-20T01:15:24;7.63;;;2.47;;
6089;SDS011;3073;42.660;23.316;2023-07-20T01:17:51;9.50;;;2.73;;
6089;SDS011;3073;42.660;23.316;2023-07-20T01:20:18;9.73;;;2.47;;
6089;SDS011;3073;42.660;23.316;2023-07-20T01:22:55;10.33;;;3.10;;
6089;SDS011;3073;42.660;23.316;2023-07-20T01:25:56;12.83;;;2.47;;
6089;SDS011;3073;42.660;23.316;2023-07-20T01:29:01;5.30;;;2.43;;
6089;SDS011;3073;42.660;23.316;2023-07-20T01:31:48;9.83;;;3.47;;
6089;SDS011;3073;42.660;23.316;2023-07-20T01:34:18;5.60;;;2.57;;
6089;SDS011;3073;42.660;23.316;2023-07-20T01:36:45;7.80;;;3.03;;
6089;SDS011;3073;42.660;23.316;2023-07-20T01:39:14;18.77;;;3.10;;
6089;SDS011;3073;42.660;23.316;2023-07-20T01:41:42;11.63;;;3.20;;
6089;SDS011;3073;42.660;23.316;2023-07-20T01:44:09;10.43;;;3.50;;
6089;SDS011;3073;42.660;23.316;2023-07-20T01:46:36;7.23;;;3.00;;
6089;SDS011;3073;42.660;23.316;2023-07-20T01:49:04;12.07;;;3.23;;
6089;SDS011;3073;42.660;23.316;2023-07-20T01:51:31;14.10;;;3.10;;
6089;SDS011;3073;42.660;23.316;2023-07-20T01:53:58;8.73;;;2.83;;
6089;SDS011;3073;42.660;23.316;2023-07-20T01:56:25;6.90;;;2.83;;
6089;SDS011;3073;42.660;23.316;2023-07-20T01:58:52;8.43;;;3.20;;
6089;SDS011;3073;42.660;23.316;2023-07-20T02:01:19;9.40;;;3.57;;
6089;SDS011;3073;42.660;23.316;2023-07-20T02:03:46;8.80;;;2.90;;
6089;SDS011;3073;42.660;23.316;2023-07-20T02:06:14;8.13;;;2.77;;
6089;SDS011;3073;42.660;23.316;2023-07-20T02:08:41;8.40;;;2.83;;
6089;SDS011;3073;42.660;23.316;2023-07-20T02:11:08;13.47;;;3.53;;
6089;SDS011;3073;42.660;23.316;2023-07-20T02:13:35;17.57;;;3.80;;
6089;SDS011;3073;42.660;23.316;2023-07-20T02:16:02;17.20;;;3.70;;
6089;SDS011;3073;42.660;23.316;2023-07-20T02:18:30;14.67;;;3.80;;
6089;SDS011;3073;42.660;23.316;2023-07-20T02:20:57;8.80;;;3.60;;
6089;SDS011;3073;42.660;23.316;2023-07-20T02:23:25;6.93;;;3.03;;
6089;SDS011;3073;42.660;23.316;2023-07-20T02:25:52;13.37;;;3.37;;
6089;SDS011;3073;42.660;23.316;2023-07-20T02:28:19;8.87;;;2.90;;
6089;SDS011;3073;42.660;23.316;2023-07-20T02:30:46;10.43;;;3.77;;
6089;SDS011;3073;42.660;23.316;2023-07-20T02:33:15;13.27;;;3.90;;
6089;SDS011;3073;42.660;23.316;2023-07-20T02:35:41;5.13;;;2.80;;
6089;SDS011;3073;42.660;23.316;2023-07-20T02:38:08;5.57;;;3.20;;
6089;SDS011;3073;42.660;23.316;2023-07-20T02:40:37;6.63;;;3.40;;
6089;SDS011;3073;42.660;23.316;2023-07-20T02:43:04;6.80;;;2.87;;
6089;SDS011;3073;42.660;23.316;2023-07-20T02:45:30;10.30;;;3.60;;
6089;SDS011;3073;42.660;23.316;2023-07-20T02:47:57;19.93;;;4.00;;
6089;SDS011;3073;42.660;23.316;2023-07-20T02:50:24;12.93;;;4.80;;
6089;SDS011;3073;42.660;23.316;2023-07-20T02:52:51;9.93;;;3.47;;
6089;SDS011;3073;42.660;23.316;2023-07-20T02:55:17;7.30;;;3.37;;
6089;SDS011;3073;42.660;23.316;2023-07-20T02:57:46;12.03;;;3.57;;
6089;SDS011;3073;42.660;23.316;2023-07-20T03:00:14;8.37;;;3.70;;
6089;SDS011;3073;42.660;23.316;2023-07-20T03:02:41;13.40;;;4.30;;
6089;SDS011;3073;42.660;23.316;2023-07-20T03:05:08;14.40;;;4.27;;
6089;SDS011;3073;42.660;23.316;2023-07-20T03:07:36;17.80;;;3.80;;
6089;SDS011;3073;42.660;23.316;2023-07-20T03:10:03;12.87;;;3.73;;
6089;SDS011;3073;42.660;23.316;2023-07-20T03:12:32;9.60;;;3.57;;
6089;SDS011;3073;42.660;23.316;2023-07-20T03:15:01;9.20;;;3.40;;
6089;SDS011;3073;42.660;23.316;2023-07-20T03:17:28;11.90;;;4.27;;
6089;SDS011;3073;42.660;23.316;2023-07-20T03:19:55;11.20;;;3.80;;
6089;SDS011;3073;42.660;23.316;2023-07-20T03:22:22;14.63;;;4.47;;
6089;SDS011;3073;42.660;23.316;2023-07-20T03:24:49;6.40;;;3.20;;
6089;SDS011;3073;42.660;23.316;2023-07-20T03:27:16;11.53;;;4.33;;
6089;SDS011;3073;42.660;23.316;2023-07-20T03:29:43;17.90;;;4.83;;
6089;SDS011;3073;42.660;23.316;2023-07-20T03:32:11;10.93;;;4.20;;
6089;SDS011;3073;42.660;23.316;2023-07-20T03:34:38;7.70;;;3.80;;
6089;SDS011;3073;42.660;23.316;2023-07-20T03:37:05;11.73;;;4.20;;
6089;SDS011;3073;42.660;23.316;2023-07-20T03:39:32;9.20;;;4.27;;
6089;SDS011;3073;42.660;23.316;2023-07-20T03:41:59;10.17;;;3.87;;
6089;SDS011;3073;42.660;23.316;2023-07-20T03:44:26;12.03;;;3.90;;
6089;SDS011;3073;42.660;23.316;2023-07-20T03:46:53;13.50;;;3.37;;
6089;SDS011;3073;42.660;23.316;2023-07-20T03:49:21;10.63;;;3.50;;
6089;SDS011;3073;42.660;23.316;2023-07-20T03:51:48;8.60;;;4.17;;
6089;SDS011;3073;42.660;23.316;2023-07-20T03:54:14;10.27;;;4.07;;
6089;SDS011;3073;42.660;23.316;2023-07-20T03:56:41;9.20;;;4.17;;
6089;SDS011;3073;42.660;23.316;2023-07-20T03:59:08;9.73;;;3.90;;
6089;SDS011;3073;42.660;23.316;2023-07-20T04:01:35;14.53;;;4.40;;
6089;SDS011;3073;42.660;23.316;2023-07-20T04:04:04;9.00;;;3.90;;
6089;SDS011;3073;42.660;23.316;2023-07-20T04:06:34;9.23;;;3.67;;
6089;SDS011;3073;42.660;23.316;2023-07-20T04:09:00;11.07;;;4.43;;
6089;SDS011;3073;42.660;23.316;2023-07-20T04:11:27;11.47;;;3.93;;
6089;SDS011;3073;42.660;23.316;2023-07-20T04:14:03;11.73;;;3.97;;
6089;SDS011;3073;42.660;23.316;2023-07-20T04:16:30;8.30;;;4.30;;
6089;SDS011;3073;42.660;23.316;2023-07-20T04:18:57;18.63;;;5.00;;
6089;SDS011;3073;42.660;23.316;2023-07-20T04:21:26;15.50;;;4.73;;
6089;SDS011;3073;42.660;23.316;2023-07-20T04:23:55;9.47;;;4.30;;
6089;SDS011;3073;42.660;23.316;2023-07-20T04:26:22;9.67;;;3.80;;
6089;SDS011;3073;42.660;23.316;2023-07-20T04:28:49;9.37;;;3.07;;
6089;SDS011;3073;42.660;23.316;2023-07-20T04:31:17;10.80;;;4.10;;
6089;SDS011;3073;42.660;23.316;2023-07-20T04:33:44;11.40;;;4.33;;
6089;SDS011;3073;42.660;23.316;2023-07-20T04:36:11;18.90;;;5.00;;
6089;SDS011;3073;42.660;23.316;2023-07-20T04:38:39;11.07;;;4.50;;
6089;SDS011;3073;42.660;23.316;2023-07-20T04:41:08;14.90;;;4.10;;
6089;SDS011;3073;42.660;23.316;2023-07-20T04:43:37;11.03;;;5.20;;
6089;SDS011;3073;42.660;23.316;2023-07-20T04:46:08;14.60;;;4.10;;
6089;SDS011;3073;42.660;23.316;2023-07-20T04:48:36;8.83;;;4.43;;
6089;SDS011;3073;42.660;23.316;2023-07-20T04:51:03;12.50;;;4.60;;
6089;SDS011;3073;42.660;23.316;2023-07-20T04:53:30;17.10;;;3.80;;
6089;SDS011;3073;42.660;23.316;2023-07-20T04:55:57;10.30;;;4.07;;
6089;SDS011;3073;42.660;23.316;2023-07-20T04:58:25;13.70;;;4.60;;
6089;SDS011;3073;42.660;23.316;2023-07-20T05:00:52;7.93;;;3.40;;
6089;SDS011;3073;42.660;23.316;2023-07-20T05:03:19;15.77;;;5.63;;
6089;SDS011;3073;42.660;23.316;2023-07-20T05:05:46;16.47;;;5.10;;
6089;SDS011;3073;42.660;23.316;2023-07-20T05:08:13;11.30;;;4.87;;
6089;SDS011;3073;42.660;23.316;2023-07-20T05:10:41;13.50;;;6.40;;
6089;SDS011;3073;42.660;23.316;2023-07-20T05:13:08;11.70;;;4.47;;
6089;SDS011;3073;42.660;23.316;2023-07-20T05:15:36;13.30;;;5.17;;
6089;SDS011;3073;42.660;23.316;2023-07-20T05:18:03;14.47;;;4.83;;
6089;SDS011;3073;42.660;23.316;2023-07-20T05:20:29;21.63;;;4.93;;
6089;SDS011;3073;42.660;23.316;2023-07-20T05:22:58;11.03;;;4.27;;
6089;SDS011;3073;42.660;23.316;2023-07-20T05:25:25;7.40;;;4.10;;
6089;SDS011;3073;42.660;23.316;2023-07-20T05:27:52;13.40;;;4.77;;
6089;SDS011;3073;42.660;23.316;2023-07-20T05:30:20;18.03;;;4.57;;
6089;SDS011;3073;42.660;23.316;2023-07-20T05:32:49;8.97;;;3.93;;
6089;SDS011;3073;42.660;23.316;2023-07-20T05:35:17;10.73;;;3.80;;
6089;SDS011;3073;42.660;23.316;2023-07-20T05:37:44;7.07;;;3.50;;
6089;SDS011;3073;42.660;23.316;2023-07-20T05:40:11;5.90;;;3.53;;
6089;SDS011;3073;42.660;23.316;2023-07-20T05:42:39;8.73;;;3.67;;
6089;SDS011;3073;42.660;23.316;2023-07-20T05:45:07;11.73;;;4.50;;
6089;SDS011;3073;42.660;23.316;2023-07-20T05:47:34;13.70;;;4.40;;
6089;SDS011;3073;42.660;23.316;2023-07-20T05:50:02;13.70;;;5.50;;
6089;SDS011;3073;42.660;23.316;2023-07-20T05:52:30;13.03;;;3.77;;
6089;SDS011;3073;42.660;23.316;2023-07-20T05:54:56;14.30;;;4.63;;
6089;SDS011;3073;42.660;23.316;2023-07-20T05:57:23;9.50;;;3.63;;
6089;SDS011;3073;42.660;23.316;2023-07-20T05:59:50;12.27;;;4.13;;
6089;SDS011;3073;42.660;23.316;2023-07-20T06:02:17;10.70;;;4.47;;
6089;SDS011;3073;42.660;23.316;2023-07-20T06:04:44;12.35;;;3.47;;
6089;SDS011;3073;42.660;23.316;2023-07-20T06:07:12;8.60;;;3.63;;
6089;SDS011;3073;42.660;23.316;2023-07-20T06:09:39;9.40;;;4.25;;
6089;SDS011;3073;42.660;23.316;2023-07-20T06:12:07;16.73;;;4.22;;
6089;SDS011;3073;42.660;23.316;2023-07-20T06:14:34;12.00;;;3.70;;
6089;SDS011;3073;42.660;23.316;2023-07-20T06:17:01;20.00;;;4.43;;
6089;SDS011;3073;42.660;23.316;2023-07-20T06:19:28;21.33;;;3.72;;
6089;SDS011;3073;42.660;23.316;2023-07-20T06:21:55;8.10;;;3.50;;
6089;SDS011;3073;42.660;23.316;2023-07-20T06:24:23;7.03;;;4.03;;
6089;SDS011;3073;42.660;23.316;2023-07-20T06:26:50;9.85;;;4.00;;
6089;SDS011;3073;42.660;23.316;2023-07-20T06:29:17;8.30;;;3.53;;
6089;SDS011;3073;42.660;23.316;2023-07-20T06:31:44;10.13;;;3.45;;
6089;SDS011;3073;42.660;23.316;2023-07-20T06:34:11;9.48;;;3.85;;
6089;SDS011;3073;42.660;23.316;2023-07-20T06:36:37;10.10;;;3.55;;
6089;SDS011;3073;42.660;23.316;2023-07-20T06:39:04;15.32;;;3.85;;
6089;SDS011;3073;42.660;23.316;2023-07-20T06:41:32;11.85;;;3.58;;
6089;SDS011;3073;42.660;23.316;2023-07-20T06:44:00;12.00;;;4.30;;
6089;SDS011;3073;42.660;23.316;2023-07-20T06:46:26;8.02;;;4.13;;
6089;SDS011;3073;42.660;23.316;2023-07-20T06:48:53;10.48;;;3.55;;
6089;SDS011;3073;42.660;23.316;2023-07-20T06:51:21;11.95;;;3.35;;
6089;SDS011;3073;42.660;23.316;2023-07-20T06:53:48;10.30;;;4.28;;
6089;SDS011;3073;42.660;23.316;2023-07-20T06:56:15;10.55;;;3.85;;
6089;SDS011;3073;42.660;23.316;2023-07-20T06:58:43;11.00;;;3.78;;
6089;SDS011;3073;42.660;23.316;2023-07-20T07:01:09;5.97;;;3.13;;
6089;SDS011;3073;42.660;23.316;2023-07-20T07:03:36;6.97;;;3.13;;
6089;SDS011;3073;42.660;23.316;2023-07-20T07:06:03;8.75;;;3.70;;
6089;SDS011;3073;42.660;23.316;2023-07-20T07:08:30;9.68;;;3.97;;
6089;SDS011;3073;42.660;23.316;2023-07-20T07:10:57;11.90;;;4.07;;
6089;SDS011;3073;42.660;23.316;2023-07-20T07:13:25;8.30;;;3.60;;
6089;SDS011;3073;42.660;23.316;2023-07-20T07:15:53;11.68;;;3.10;;
6089;SDS011;3073;42.660;23.316;2023-07-20T07:18:20;7.45;;;3.28;;
6089;SDS011;3073;42.660;23.316;2023-07-20T07:20:50;11.13;;;4.18;;
6089;SDS011;3073;42.660;23.316;2023-07-20T07:23:18;11.15;;;4.65;;
6089;SDS011;3073;42.660;23.316;2023-07-20T07:25:45;9.40;;;4.22;;
6089;SDS011;3073;42.660;23.316;2023-07-20T07:28:12;9.35;;;4.32;;
6089;SDS011;3073;42.660;23.316;2023-07-20T07:30:39;17.05;;;4.30;;
6089;SDS011;3073;42.660;23.316;2023-07-20T07:33:07;18.15;;;4.93;;
6089;SDS011;3073;42.660;23.316;2023-07-20T07:35:35;14.90;;;4.90;;
6089;SDS011;3073;42.660;23.316;2023-07-20T07:38:02;14.57;;;4.75;;
6089;SDS011;3073;42.660;23.316;2023-07-20T07:40:30;7.63;;;4.32;;
6089;SDS011;3073;42.660;23.316;2023-07-20T07:42:57;11.98;;;4.88;;
6089;SDS011;3073;42.660;23.316;2023-07-20T07:45:24;14.20;;;5.25;;
6089;SDS011;3073;42.660;23.316;2023-07-20T07:47:50;12.10;;;4.75;;
6089;SDS011;3073;42.660;23.316;2023-07-20T07:50:19;12.93;;;4.70;;
6089;SDS011;3073;42.660;23.316;2023-07-20T07:52:45;12.45;;;4.20;;
6089;SDS011;3073;42.660;23.316;2023-07-20T07:55:12;9.55;;;4.15;;
6089;SDS011;3073;42.660;23.316;2023-07-20T07:57:41;8.45;;;3.60;;
6089;SDS011;3073;42.660;23.316;2023-07-20T08:00:09;13.48;;;4.53;;
6089;SDS011;3073;42.660;23.316;2023-07-20T08:02:39;13.23;;;4.50;;
6089;SDS011;3073;42.660;23.316;2023-07-20T08:05:06;16.02;;;4.43;;
6089;SDS011;3073;42.660;23.316;2023-07-20T08:07:35;11.93;;;4.32;;
6089;SDS011;3073;42.660;23.316;2023-07-20T08:10:02;6.60;;;3.75;;
6089;SDS011;3073;42.660;23.316;2023-07-20T08:12:29;12.35;;;5.00;;
6089;SDS011;3073;42.660;23.316;2023-07-20T08:14:56;19.70;;;5.75;;
6089;SDS011;3073;42.660;23.316;2023-07-20T08:17:23;14.25;;;5.28;;
6089;SDS011;3073;42.660;23.316;2023-07-20T08:19:50;9.82;;;3.85;;
6089;SDS011;3073;42.660;23.316;2023-07-20T08:22:17;12.00;;;3.80;;
6089;SDS011;3073;42.660;23.316;2023-07-20T08:24:45;8.55;;;3.35;;
6089;SDS011;3073;42.660;23.316;2023-07-20T08:27:13;11.43;;;3.30;;
6089;SDS011;3073;42.660;23.316;2023-07-20T08:29:42;11.57;;;2.97;;
6089;SDS011;3073;42.660;23.316;2023-07-20T08:32:11;11.90;;;3.75;;
6089;SDS011;3073;42.660;23.316;2023-07-20T08:34:41;6.50;;;2.80;;
6089;SDS011;3073;42.660;23.316;2023-07-20T08:37:10;13.98;;;2.45;;
6089;SDS011;3073;42.660;23.316;2023-07-20T08:39:38;16.88;;;3.50;;
6089;SDS011;3073;42.660;23.316;2023-07-20T08:42:08;8.80;;;2.38;;
6089;SDS011;3073;42.660;23.316;2023-07-20T08:44:37;11.10;;;3.42;;
6089;SDS011;3073;42.660;23.316;2023-07-20T08:47:06;8.02;;;2.63;;
6089;SDS011;3073;42.660;23.316;2023-07-20T08:49:34;10.73;;;2.92;;
6089;SDS011;3073;42.660;23.316;2023-07-20T08:52:01;7.10;;;3.20;;
6089;SDS011;3073;42.660;23.316;2023-07-20T08:54:30;7.65;;;3.28;;
6089;SDS011;3073;42.660;23.316;2023-07-20T08:57:00;10.80;;;2.67;;
6089;SDS011;3073;42.660;23.316;2023-07-20T08:59:29;7.25;;;2.58;;
6089;SDS011;3073;42.660;23.316;2023-07-20T09:01:58;10.85;;;3.13;;
6089;SDS011;3073;42.660;23.316;2023-07-20T09:04:25;10.80;;;2.80;;
6089;SDS011;3073;42.660;23.316;2023-07-20T09:06:52;14.68;;;2.47;;
6089;SDS011;3073;42.660;23.316;2023-07-20T09:09:19;11.88;;;2.95;;
6089;SDS011;3073;42.660;23.316;2023-07-20T09:11:47;8.80;;;2.72;;
6089;SDS011;3073;42.660;23.316;2023-07-20T09:14:13;7.40;;;2.78;;
6089;SDS011;3073;42.660;23.316;2023-07-20T09:16:48;7.60;;;2.88;;
6089;SDS011;3073;42.660;23.316;2023-07-20T09:19:17;7.25;;;2.70;;
6089;SDS011;3073;42.660;23.316;2023-07-20T09:21:44;6.75;;;2.85;;
6089;SDS011;3073;42.660;23.316;2023-07-20T09:24:12;6.25;;;2.40;;
6089;SDS011;3073;42.660;23.316;2023-07-20T09:26:42;9.38;;;2.67;;
6089;SDS011;3073;42.660;23.316;2023-07-20T09:29:10;5.85;;;2.60;;
6089;SDS011;3073;42.660;23.316;2023-07-20T09:31:37;13.48;;;2.97;;
6089;SDS011;3073;42.660;23.316;2023-07-20T09:34:06;11.75;;;4.03;;
6089;SDS011;3073;42.660;23.316;2023-07-20T09:36:34;13.18;;;2.53;;
6089;SDS011;3073;42.660;23.316;2023-07-20T09:39:02;8.25;;;2.55;;
6089;SDS011;3073;42.660;23.316;2023-07-20T09:41:30;5.75;;;2.15;;
6089;SDS011;3073;42.660;23.316;2023-07-20T09:44:06;9.00;;;2.40;;
6089;SDS011;3073;42.660;23.316;2023-07-20T09:46:43;6.22;;;1.98;;
6089;SDS011;3073;42.660;23.316;2023-07-20T09:49:12;5.93;;;2.45;;
6089;SDS011;3073;42.660;23.316;2023-07-20T09:51:40;7.78;;;2.40;;
6089;SDS011;3073;42.660;23.316;2023-07-20T09:54:07;10.77;;;2.97;;
6089;SDS011;3073;42.660;23.316;2023-07-20T09:56:34;8.18;;;2.60;;
6089;SDS011;3073;42.660;23.316;2023-07-20T09:59:01;10.60;;;2.92;;
6089;SDS011;3073;42.660;23.316;2023-07-20T10:01:28;11.32;;;3.33;;
6089;SDS011;3073;42.660;23.316;2023-07-20T10:03:57;3.95;;;2.00;;
6089;SDS011;3073;42.660;23.316;2023-07-20T10:06:28;11.95;;;2.58;;
6089;SDS011;3073;42.660;23.316;2023-07-20T10:08:56;8.10;;;2.97;;
6089;SDS011;3073;42.660;23.316;2023-07-20T10:11:29;9.85;;;3.15;;
6089;SDS011;3073;42.660;23.316;2023-07-20T10:13:56;6.80;;;2.50;;
6089;SDS011;3073;42.660;23.316;2023-07-20T10:16:29;9.07;;;2.53;;
6089;SDS011;3073;42.660;23.316;2023-07-20T10:19:02;10.60;;;2.40;;
6089;SDS011;3073;42.660;23.316;2023-07-20T10:21:35;14.05;;;3.10;;
6089;SDS011;3073;42.660;23.316;2023-07-20T10:24:06;4.95;;;2.45;;
6089;SDS011;3073;42.660;23.316;2023-07-20T10:26:36;15.85;;;2.88;;
6089;SDS011;3073;42.660;23.316;2023-07-20T10:29:03;7.07;;;2.45;;
6089;SDS011;3073;42.660;23.316;2023-07-20T10:31:31;5.80;;;2.22;;
6089;SDS011;3073;42.660;23.316;2023-07-20T10:34:00;6.00;;;2.35;;
6089;SDS011;3073;42.660;23.316;2023-07-20T10:36:28;8.77;;;3.00;;
6089;SDS011;3073;42.660;23.316;2023-07-20T10:38:56;10.57;;;3.17;;
6089;SDS011;3073;42.660;23.316;2023-07-20T10:41:27;7.15;;;2.35;;
6089;SDS011;3073;42.660;23.316;2023-07-20T10:43:58;10.38;;;2.70;;
6089;SDS011;3073;42.660;23.316;2023-07-20T10:46:41;7.60;;;2.78;;
6089;SDS011;3073;42.660;23.316;2023-07-20T10:49:10;9.52;;;3.30;;
6089;SDS011;3073;42.660;23.316;2023-07-20T10:51:41;5.38;;;2.28;;
6089;SDS011;3073;42.660;23.316;2023-07-20T10:54:12;5.00;;;3.05;;
6089;SDS011;3073;42.660;23.316;2023-07-20T10:57:22;11.65;;;2.53;;
6089;SDS011;3073;42.660;23.316;2023-07-20T11:00:09;7.10;;;3.25;;
6089;SDS011;3073;42.660;23.316;2023-07-20T11:02:46;5.15;;;2.50;;
6089;SDS011;3073;42.660;23.316;2023-07-20T11:08:03;10.90;;;2.97;;
6089;SDS011;3073;42.660;23.316;2023-07-20T11:10:32;4.72;;;2.80;;
6089;SDS011;3073;42.660;23.316;2023-07-20T11:13:18;7.35;;;2.65;;
6089;SDS011;3073;42.660;23.316;2023-07-20T11:15:46;9.23;;;2.78;;
6089;SDS011;3073;42.660;23.316;2023-07-20T11:18:14;5.95;;;2.75;;
6089;SDS011;3073;42.660;23.316;2023-07-20T11:20:41;11.40;;;3.58;;
6089;SDS011;3073;42.660;23.316;2023-07-20T11:23:09;7.40;;;2.60;;
6089;SDS011;3073;42.660;23.316;2023-07-20T11:25:38;6.20;;;2.47;;
6089;SDS011;3073;42.660;23.316;2023-07-20T11:28:06;6.70;;;2.78;;
6089;SDS011;3073;42.660;23.316;2023-07-20T11:30:34;8.95;;;2.92;;
6089;SDS011;3073;42.660;23.316;2023-07-20T11:33:01;6.85;;;2.63;;
6089;SDS011;3073;42.660;23.316;2023-07-20T11:35:27;5.65;;;2.88;;
6089;SDS011;3073;42.660;23.316;2023-07-20T11:37:54;8.38;;;3.17;;
6089;SDS011;3073;42.660;23.316;2023-07-20T11:40:22;11.98;;;3.42;;
6089;SDS011;3073;42.660;23.316;2023-07-20T11:42:50;6.93;;;3.60;;
6089;SDS011;3073;42.660;23.316;2023-07-20T11:45:17;9.70;;;4.65;;
6089;SDS011;3073;42.660;23.316;2023-07-20T11:47:45;8.70;;;3.88;;
6089;SDS011;3073;42.660;23.316;2023-07-20T11:50:12;9.60;;;5.07;;
6089;SDS011;3073;42.660;23.316;2023-07-20T11:52:39;9.20;;;4.20;;
6089;SDS011;3073;42.660;23.316;2023-07-20T11:55:07;10.77;;;4.63;;
6089;SDS011;3073;42.660;23.316;2023-07-20T11:57:34;6.45;;;3.30;;
6089;SDS011;3073;42.660;23.316;2023-07-20T12:00:03;9.68;;;3.75;;
6089;SDS011;3073;42.660;23.316;2023-07-20T12:02:36;6.15;;;3.83;;
6089;SDS011;3073;42.660;23.316;2023-07-20T12:05:04;10.48;;;4.63;;
6089;SDS011;3073;42.660;23.316;2023-07-20T12:07:34;12.07;;;3.58;;
6089;SDS011;3073;42.660;23.316;2023-07-20T12:10:04;7.03;;;4.30;;
6089;SDS011;3073;42.660;23.316;2023-07-20T12:12:32;7.78;;;3.75;;
6089;SDS011;3073;42.660;23.316;2023-07-20T12:17:43;6.75;;;3.83;;
6089;SDS011;3073;42.660;23.316;2023-07-20T12:20:11;5.32;;;4.20;;
6089;SDS011;3073;42.660;23.316;2023-07-20T12:22:39;6.57;;;2.95;;
6089;SDS011;3073;42.660;23.316;2023-07-20T12:25:16;9.07;;;3.45;;
6089;SDS011;3073;42.660;23.316;2023-07-20T12:27:45;4.63;;;2.85;;
6089;SDS011;3073;42.660;23.316;2023-07-20T12:30:12;8.65;;;3.17;;
6089;SDS011;3073;42.660;23.316;2023-07-20T12:32:40;7.80;;;3.20;;
6089;SDS011;3073;42.660;23.316;2023-07-20T12:35:07;8.27;;;3.03;;
6089;SDS011;3073;42.660;23.316;2023-07-20T12:37:34;10.63;;;3.35;;
6089;SDS011;3073;42.660;23.316;2023-07-20T12:40:01;7.75;;;2.92;;
6089;SDS011;3073;42.660;23.316;2023-07-20T12:42:30;7.50;;;2.63;;
6089;SDS011;3073;42.660;23.316;2023-07-20T12:44:57;9.57;;;3.05;;
6089;SDS011;3073;42.660;23.316;2023-07-20T12:47:24;11.35;;;2.92;;
6089;SDS011;3073;42.660;23.316;2023-07-20T12:49:51;7.35;;;3.00;;
6089;SDS011;3073;42.660;23.316;2023-07-20T12:52:17;12.15;;;3.47;;
6089;SDS011;3073;42.660;23.316;2023-07-20T12:54:44;7.07;;;2.75;;
6089;SDS011;3073;42.660;23.316;2023-07-20T12:57:11;8.57;;;2.88;;
6089;SDS011;3073;42.660;23.316;2023-07-20T12:59:39;10.75;;;2.50;;
6089;SDS011;3073;42.660;23.316;2023-07-20T13:02:06;9.23;;;3.50;;
6089;SDS011;3073;42.660;23.316;2023-07-20T13:04:33;12.18;;;2.88;;
6089;SDS011;3073;42.660;23.316;2023-07-20T13:06:59;17.13;;;3.80;;
6089;SDS011;3073;42.660;23.316;2023-07-20T13:09:26;7.35;;;2.65;;
6089;SDS011;3073;42.660;23.316;2023-07-20T13:11:53;4.80;;;2.33;;
6089;SDS011;3073;42.660;23.316;2023-07-20T13:14:22;7.70;;;3.03;;
6089;SDS011;3073;42.660;23.316;2023-07-20T13:16:50;4.03;;;2.25;;
6089;SDS011;3073;42.660;23.316;2023-07-20T13:19:19;8.40;;;2.85;;
6089;SDS011;3073;42.660;23.316;2023-07-20T13:21:46;6.57;;;3.25;;
6089;SDS011;3073;42.660;23.316;2023-07-20T13:24:13;8.13;;;3.70;;
6089;SDS011;3073;42.660;23.316;2023-07-20T13:26:40;7.30;;;3.20;;
6089;SDS011;3073;42.660;23.316;2023-07-20T13:29:07;5.88;;;2.53;;
6089;SDS011;3073;42.660;23.316;2023-07-20T13:31:33;8.90;;;3.22;;
6089;SDS011;3073;42.660;23.316;2023-07-20T13:34:01;11.70;;;3.10;;
6089;SDS011;3073;42.660;23.316;2023-07-20T13:36:29;6.93;;;2.53;;
6089;SDS011;3073;42.660;23.316;2023-07-20T13:38:57;15.85;;;3.40;;
6089;SDS011;3073;42.660;23.316;2023-07-20T13:41:24;5.55;;;2.75;;
6089;SDS011;3073;42.660;23.316;2023-07-20T13:43:51;13.68;;;2.45;;
6089;SDS011;3073;42.660;23.316;2023-07-20T13:46:18;10.30;;;2.72;;
6089;SDS011;3073;42.660;23.316;2023-07-20T13:48:45;9.00;;;2.55;;
6089;SDS011;3073;42.660;23.316;2023-07-20T13:51:13;6.93;;;2.83;;
6089;SDS011;3073;42.660;23.316;2023-07-20T13:53:39;6.05;;;2.80;;
6089;SDS011;3073;42.660;23.316;2023-07-20T13:56:06;14.27;;;3.67;;
6089;SDS011;3073;42.660;23.316;2023-07-20T13:58:33;7.82;;;2.28;;
6089;SDS011;3073;42.660;23.316;2023-07-20T14:01:02;11.20;;;2.33;;
6089;SDS011;3073;42.660;23.316;2023-07-20T14:03:30;10.77;;;2.38;;
6089;SDS011;3073;42.660;23.316;2023-07-20T14:05:57;5.63;;;2.17;;
6089;SDS011;3073;42.660;23.316;2023-07-20T14:08:25;8.20;;;2.42;;
6089;SDS011;3073;42.660;23.316;2023-07-20T14:10:52;9.60;;;2.90;;
6089;SDS011;3073;42.660;23.316;2023-07-20T14:13:19;11.70;;;3.10;;
6089;SDS011;3073;42.660;23.316;2023-07-20T14:15:45;10.93;;;2.72;;
6089;SDS011;3073;42.660;23.316;2023-07-20T14:18:12;8.45;;;2.50;;
6089;SDS011;3073;42.660;23.316;2023-07-20T14:20:39;12.95;;;3.45;;
6089;SDS011;3073;42.660;23.316;2023-07-20T14:23:06;15.18;;;3.88;;
6089;SDS011;3073;42.660;23.316;2023-07-20T14:25:34;9.57;;;2.70;;
6089;SDS011;3073;42.660;23.316;2023-07-20T14:28:01;16.27;;;4.07;;
6089;SDS011;3073;42.660;23.316;2023-07-20T14:30:28;8.00;;;2.60;;
6089;SDS011;3073;42.660;23.316;2023-07-20T14:32:55;9.13;;;2.85;;
6089;SDS011;3073;42.660;23.316;2023-07-20T14:35:22;9.10;;;3.13;;
6089;SDS011;3073;42.660;23.316;2023-07-20T14:37:48;8.95;;;2.80;;
6089;SDS011;3073;42.660;23.316;2023-07-20T14:40:15;8.20;;;3.42;;
6089;SDS011;3073;42.660;23.316;2023-07-20T14:42:43;10.63;;;3.55;;
6089;SDS011;3073;42.660;23.316;2023-07-20T14:45:10;6.40;;;2.72;;
6089;SDS011;3073;42.660;23.316;2023-07-20T14:47:37;7.13;;;2.47;;
6089;SDS011;3073;42.660;23.316;2023-07-20T14:50:06;11.73;;;3.95;;
6089;SDS011;3073;42.660;23.316;2023-07-20T14:52:33;9.68;;;3.10;;
6089;SDS011;3073;42.660;23.316;2023-07-20T14:55:00;5.53;;;2.42;;
6089;SDS011;3073;42.660;23.316;2023-07-20T14:57:27;9.93;;;3.00;;
6089;SDS011;3073;42.660;23.316;2023-07-20T14:59:55;6.90;;;3.03;;
6089;SDS011;3073;42.660;23.316;2023-07-20T15:02:22;7.43;;;3.00;;
6089;SDS011;3073;42.660;23.316;2023-07-20T15:04:50;11.55;;;3.42;;
6089;SDS011;3073;42.660;23.316;2023-07-20T15:07:18;7.03;;;2.78;;